Time;durP1;ratioP1;P1;durP2;ratioP2;P2;SDS_P1;SDS_P2;PMS_P1;PMS_P2;Temp;Humidity;BMP_temperature;BMP_pressure;BME280_temperature;BME280_humidity;BME280_pressure;Samples;Min_cycle;Max_cycle;Signal;HPM_P1;HPM_P2
2020/12/10 00:00:55;;;;;;;29.33;14.02;;;4.30;99.90;;;;;;5058985;28;20403;-48
2020/12/10 00:03:21;;;;;;;26.80;12.98;;;4.30;99.90;;;;;;5058749;28;20405;-50
2020/12/10 00:05:48;;;;;;;26.20;13.20;;;4.30;99.90;;;;;;5063093;28;20390;-49
2020/12/10 00:08:14;;;;;;;25.50;12.20;;;4.30;99.90;;;;;;5062800;28;20393;-51
2020/12/10 00:10:40;;;;;;;26.08;12.27;;;4.30;99.90;;;;;;5058328;28;20404;-49
2020/12/10 00:13:06;;;;;;;28.27;13.45;;;4.30;99.90;;;;;;5062237;28;20894;-50
2020/12/10 00:15:32;;;;;;;26.08;13.65;;;4.30;99.90;;;;;;5062993;28;20877;-50
2020/12/10 00:17:58;;;;;;;27.27;13.38;;;4.30;99.90;;;;;;5061179;28;20396;-49
2020/12/10 00:20:24;;;;;;;26.35;12.88;;;4.30;99.90;;;;;;5057172;28;20396;-49
2020/12/10 00:22:53;;;;;;;25.05;12.40;;;4.30;99.90;;;;;;5062076;28;20384;-49
2020/12/10 00:25:19;;;;;;;26.70;12.75;;;4.30;99.90;;;;;;5063744;28;20735;-49
2020/12/10 00:27:45;;;;;;;23.17;12.10;;;4.30;99.90;;;;;;5063631;28;20382;-50
2020/12/10 00:30:12;;;;;;;26.08;12.60;;;4.30;99.90;;;;;;5058722;28;20675;-49
2020/12/10 00:32:38;;;;;;;24.00;11.98;;;4.20;99.90;;;;;;5059418;28;20441;-49
2020/12/10 00:35:06;;;;;;;24.58;12.60;;;4.30;99.90;;;;;;5059191;28;20734;-49
2020/12/10 00:37:33;;;;;;;24.95;12.55;;;4.20;99.90;;;;;;5059927;28;20903;-49
2020/12/10 00:40:00;;;;;;;24.65;12.80;;;4.20;99.90;;;;;;5058311;28;20785;-48
2020/12/10 00:42:26;;;;;;;22.23;12.10;;;4.20;99.90;;;;;;5061900;28;20387;-50
2020/12/10 00:44:52;;;;;;;26.13;12.90;;;4.20;99.90;;;;;;5063245;28;20394;-49
2020/12/10 00:47:18;;;;;;;26.58;12.93;;;4.30;99.90;;;;;;5062308;28;20382;-49
2020/12/10 00:49:45;;;;;;;25.20;12.93;;;4.20;99.90;;;;;;5059235;28;20460;-49
2020/12/10 00:52:12;;;;;;;30.35;13.40;;;4.20;99.90;;;;;;5062729;28;20410;-49
2020/12/10 00:54:38;;;;;;;29.08;13.77;;;4.20;99.90;;;;;;5056336;28;20384;-49
2020/12/10 00:57:10;;;;;;;31.33;14.52;;;4.30;99.90;;;;;;5054883;28;20416;-49
2020/12/10 00:59:40;;;;;;;27.40;13.50;;;4.30;99.90;;;;;;5056328;28;20384;-49
2020/12/10 01:02:07;;;;;;;26.42;14.15;;;4.30;99.90;;;;;;5058981;28;20402;-49
2020/12/10 01:04:36;;;;;;;29.80;14.65;;;4.30;99.90;;;;;;5061087;28;20397;-49
2020/12/10 01:07:02;;;;;;;32.47;14.90;;;4.30;99.90;;;;;;5063093;28;20421;-49
2020/12/10 01:09:28;;;;;;;31.30;14.95;;;4.30;99.90;;;;;;5061046;28;20390;-49
2020/12/10 01:11:54;;;;;;;34.83;15.88;;;4.30;99.90;;;;;;5065912;28;20417;-49
2020/12/10 01:14:21;;;;;;;32.78;15.15;;;4.30;99.90;;;;;;5061882;28;20382;-49
2020/12/10 01:16:47;;;;;;;34.53;16.88;;;4.30;99.90;;;;;;5060438;28;20400;-49
2020/12/10 01:19:14;;;;;;;35.63;16.93;;;4.30;99.90;;;;;;5063228;28;20398;-49
2020/12/10 01:21:40;;;;;;;37.60;17.50;;;4.30;99.90;;;;;;5067081;28;20405;-49
2020/12/10 01:24:06;;;;;;;38.35;18.40;;;4.30;99.90;;;;;;5065176;28;20733;-48
2020/12/10 01:26:33;;;;;;;37.47;17.95;;;4.30;99.90;;;;;;5060619;28;20402;-49
2020/12/10 01:29:03;;;;;;;41.63;18.15;;;4.40;99.90;;;;;;5063805;28;20890;-49
2020/12/10 01:31:29;;;;;;;41.90;18.58;;;4.30;99.90;;;;;;5060321;28;20475;-49
2020/12/10 01:33:55;;;;;;;43.22;18.73;;;4.30;99.90;;;;;;5062186;28;20412;-49
2020/12/10 01:36:22;;;;;;;39.13;18.25;;;4.30;99.90;;;;;;5060141;28;20862;-50
2020/12/10 01:38:49;;;;;;;43.15;19.42;;;4.30;99.90;;;;;;5061947;28;20765;-53
2020/12/10 01:41:15;;;;;;;46.30;19.90;;;4.30;99.90;;;;;;5065883;28;20402;-49
2020/12/10 01:43:41;;;;;;;49.47;20.42;;;4.30;99.90;;;;;;5061615;28;20376;-50
2020/12/10 01:46:08;;;;;;;43.80;20.02;;;4.30;99.90;;;;;;5061233;28;20878;-49
2020/12/10 01:48:34;;;;;;;47.45;20.58;;;4.30;99.90;;;;;;5059547;28;20397;-49
2020/12/10 01:51:01;;;;;;;50.83;20.50;;;4.30;99.90;;;;;;5061622;28;20487;-49
2020/12/10 01:53:27;;;;;;;45.13;20.00;;;4.30;99.90;;;;;;5060755;28;20398;-49
2020/12/10 01:55:54;;;;;;;45.15;20.33;;;4.30;99.90;;;;;;5056774;28;20704;-49
2020/12/10 01:58:20;;;;;;;45.92;19.58;;;4.40;99.90;;;;;;5060670;28;20398;-49
2020/12/10 02:00:46;;;;;;;46.85;20.38;;;4.30;99.90;;;;;;5064000;28;20390;-48
2020/12/10 02:03:12;;;;;;;46.88;19.65;;;4.30;99.90;;;;;;5065392;28;20401;-50
2020/12/10 02:05:45;;;;;;;47.95;21.42;;;4.40;99.90;;;;;;5060613;28;20385;-49
2020/12/10 02:08:11;;;;;;;47.05;20.80;;;4.30;99.90;;;;;;5058565;28;20417;-50
2020/12/10 02:10:38;;;;;;;52.33;21.08;;;4.30;99.90;;;;;;5066624;28;20394;-49
2020/12/10 02:13:04;;;;;;;54.30;21.73;;;4.30;99.90;;;;;;5060498;28;20403;-49
2020/12/10 02:15:33;;;;;;;49.85;22.20;;;4.30;99.90;;;;;;5060333;28;20735;-50
2020/12/10 02:18:06;;;;;;;55.60;22.63;;;4.30;99.90;;;;;;5062372;28;20713;-49
2020/12/10 02:20:33;;;;;;;51.45;21.70;;;4.30;99.90;;;;;;5066368;28;20401;-49
2020/12/10 02:23:06;;;;;;;52.65;22.10;;;4.30;99.90;;;;;;5064342;28;20384;-49
2020/12/10 02:25:32;;;;;;;53.83;22.33;;;4.30;99.90;;;;;;5058285;28;20729;-50
2020/12/10 02:28:12;;;;;;;54.67;22.75;;;4.40;99.90;;;;;;5060753;28;20417;-49
2020/12/10 02:30:41;;;;;;;54.60;22.75;;;4.30;99.90;;;;;;5063233;28;20383;-49
2020/12/10 02:33:08;;;;;;;58.92;23.40;;;4.40;99.90;;;;;;5061242;28;20410;-49
2020/12/10 02:35:38;;;;;;;56.58;23.55;;;4.40;99.90;;;;;;5063654;28;20382;-49
2020/12/10 02:38:06;;;;;;;53.50;23.63;;;4.40;99.90;;;;;;5058229;28;20387;-49
2020/12/10 02:40:40;;;;;;;57.17;23.55;;;4.40;99.90;;;;;;5066315;28;20378;-49
2020/12/10 02:43:06;;;;;;;58.78;23.25;;;4.40;99.90;;;;;;5067749;28;20397;-49
2020/12/10 02:45:33;;;;;;;58.80;23.45;;;4.40;99.90;;;;;;5063761;28;20378;-49
2020/12/10 02:47:59;;;;;;;56.93;24.13;;;4.40;99.90;;;;;;5068010;28;20523;-49
2020/12/10 02:50:28;;;;;;;56.88;22.90;;;4.40;99.90;;;;;;5065415;28;20393;-49
2020/12/10 02:52:54;;;;;;;52.38;22.90;;;4.40;99.90;;;;;;5064905;28;20417;-49
2020/12/10 02:55:23;;;;;;;53.88;24.95;;;4.40;99.90;;;;;;5065022;28;20383;-49
2020/12/10 02:57:49;;;;;;;50.83;23.25;;;4.40;99.90;;;;;;5065999;28;20401;-49
2020/12/10 03:00:15;;;;;;;55.85;24.40;;;4.40;99.90;;;;;;5064091;28;20387;-49
2020/12/10 03:02:41;;;;;;;55.50;23.40;;;4.40;99.90;;;;;;5062416;28;20410;-50
2020/12/10 03:05:07;;;;;;;55.97;23.53;;;4.40;99.90;;;;;;5063111;28;20384;-50
2020/12/10 03:07:34;;;;;;;55.93;23.33;;;4.40;99.90;;;;;;5059217;28;20400;-50
2020/12/10 03:10:01;;;;;;;57.17;24.30;;;4.40;99.90;;;;;;5061537;28;20375;-49
2020/12/10 03:12:27;;;;;;;57.10;24.77;;;4.40;99.90;;;;;;5059323;28;20421;-50
2020/12/10 03:14:54;;;;;;;51.20;23.45;;;4.40;99.90;;;;;;5057138;28;20374;-49
2020/12/10 03:17:20;;;;;;;51.20;23.85;;;4.40;99.90;;;;;;5057228;28;20840;-49
2020/12/10 03:19:46;;;;;;;54.38;24.08;;;4.40;99.90;;;;;;5059577;28;20384;-51
2020/12/10 03:22:14;;;;;;;57.17;24.00;;;4.50;99.90;;;;;;5061099;28;20394;-49
2020/12/10 03:24:40;;;;;;;52.65;24.52;;;4.50;99.90;;;;;;5063309;28;20381;-49
2020/12/10 03:27:07;;;;;;;57.03;25.47;;;4.50;99.90;;;;;;5065554;28;20384;-49
2020/12/10 03:29:33;;;;;;;59.10;25.50;;;4.40;99.90;;;;;;5067630;28;20393;-49
2020/12/10 03:31:59;;;;;;;61.70;24.90;;;4.50;99.90;;;;;;5070673;28;20477;-49
2020/12/10 03:34:27;;;;;;;57.25;25.00;;;4.40;99.90;;;;;;5077577;28;20404;-48
2020/12/10 03:36:54;;;;;;;53.30;24.35;;;4.40;99.90;;;;;;5067186;28;20476;-50
2020/12/10 03:39:21;;;;;;;54.97;23.73;;;4.40;99.90;;;;;;5062174;28;20396;-49
2020/12/10 03:41:48;;;;;;;52.72;23.38;;;4.50;99.90;;;;;;5059553;28;20744;-50
2020/12/10 03:44:14;;;;;;;58.00;24.15;;;4.50;99.90;;;;;;5059907;28;20490;-49
2020/12/10 03:46:40;;;;;;;54.60;24.15;;;4.50;99.90;;;;;;5061399;28;20394;-49
2020/12/10 03:49:07;;;;;;;52.30;24.02;;;4.50;99.90;;;;;;5058117;28;20388;-49
2020/12/10 03:51:34;;;;;;;53.75;23.30;;;4.50;99.90;;;;;;5060510;28;20390;-49
2020/12/10 03:54:00;;;;;;;53.97;23.23;;;4.50;99.90;;;;;;5056291;28;20400;-49
2020/12/10 03:56:26;;;;;;;51.78;22.73;;;4.50;99.90;;;;;;5058713;28;20391;-49
2020/12/10 03:58:54;;;;;;;48.72;22.70;;;4.50;99.90;;;;;;5065566;28;20411;-49
2020/12/10 04:01:20;;;;;;;50.10;22.98;;;4.50;99.90;;;;;;5058574;28;20406;-49
2020/12/10 04:03:46;;;;;;;48.67;22.85;;;4.50;99.90;;;;;;5066885;28;20393;-50
2020/12/10 04:06:12;;;;;;;50.67;22.97;;;4.50;99.90;;;;;;5060404;28;20376;-48
2020/12/10 04:08:39;;;;;;;48.17;21.80;;;4.50;99.90;;;;;;5060308;28;20374;-49
2020/12/10 04:11:05;;;;;;;46.35;21.83;;;4.50;99.90;;;;;;5056294;28;20728;-49
2020/12/10 04:13:31;;;;;;;45.53;21.20;;;4.50;99.90;;;;;;5066134;28;20410;-50
2020/12/10 04:16:00;;;;;;;45.58;21.83;;;4.50;99.90;;;;;;5060602;28;20740;-50
2020/12/10 04:18:27;;;;;;;43.30;20.92;;;4.50;99.90;;;;;;5060161;28;20404;-49
2020/12/10 04:20:53;;;;;;;44.27;20.73;;;4.50;99.90;;;;;;5062320;28;20386;-49
2020/12/10 04:23:22;;;;;;;47.30;20.90;;;4.50;99.90;;;;;;5061669;28;20400;-49
2020/12/10 04:25:53;;;;;;;42.67;20.42;;;4.50;99.90;;;;;;5061318;28;20390;-49
2020/12/10 04:28:19;;;;;;;45.63;21.35;;;4.50;99.90;;;;;;5058826;28;20402;-49
2020/12/10 04:30:45;;;;;;;40.63;20.27;;;4.50;99.90;;;;;;5064770;28;20405;-49
2020/12/10 04:33:12;;;;;;;44.65;21.02;;;4.50;99.90;;;;;;5058852;28;20412;-49
2020/12/10 04:35:38;;;;;;;40.15;19.95;;;4.50;99.90;;;;;;5062919;28;20390;-49
2020/12/10 04:38:04;;;;;;;40.58;20.02;;;4.50;99.90;;;;;;5067846;28;20390;-48
2020/12/10 04:40:30;;;;;;;41.83;19.30;;;4.50;99.90;;;;;;5058309;28;20384;-49
2020/12/10 04:42:57;;;;;;;40.00;19.50;;;4.50;99.90;;;;;;5058161;28;20398;-48
2020/12/10 04:45:23;;;;;;;41.55;20.30;;;4.50;99.90;;;;;;5063524;28;20397;-50
2020/12/10 04:47:51;;;;;;;40.13;19.90;;;4.50;99.90;;;;;;5062876;28;20387;-49
2020/12/10 04:50:20;;;;;;;47.58;20.83;;;4.50;99.90;;;;;;5050183;28;20377;-49
2020/12/10 04:52:49;;;;;;;42.33;20.10;;;4.50;99.90;;;;;;5059593;28;20406;-49
2020/12/10 04:55:15;;;;;;;39.85;19.10;;;4.50;99.90;;;;;;5058256;28;20391;-49
2020/12/10 04:57:42;;;;;;;39.78;19.33;;;4.50;99.90;;;;;;5060946;28;20478;-49
2020/12/10 05:00:14;;;;;;;40.10;20.02;;;4.50;99.90;;;;;;5053292;28;20376;-49
2020/12/10 05:02:40;;;;;;;41.90;19.42;;;4.50;99.90;;;;;;5059483;28;20406;-49
2020/12/10 05:05:31;;;;;;;38.40;19.85;;;4.50;99.90;;;;;;5062450;28;20386;-49
2020/12/10 05:07:59;;;;;;;38.97;19.97;;;4.50;99.90;;;;;;5059811;28;20725;-49
2020/12/10 05:10:25;;;;;;;41.60;20.40;;;4.50;99.90;;;;;;5055604;28;20391;-49
2020/12/10 05:13:13;;;;;;;46.65;21.20;;;4.50;99.90;;;;;;5067705;28;20410;-51
2020/12/10 05:15:40;;;;;;;41.65;20.08;;;4.50;99.90;;;;;;5068276;28;20378;-49
2020/12/10 05:18:08;;;;;;;44.70;20.05;;;4.50;99.90;;;;;;5070871;28;20398;-48
2020/12/10 05:20:50;;;;;;;38.50;19.20;;;4.50;99.90;;;;;;5070200;28;20389;-49
2020/12/10 05:23:47;;;;;;;40.33;19.92;;;4.50;99.90;;;;;;5063294;28;20384;-49
2020/12/10 05:26:13;;;;;;;41.85;19.48;;;4.50;99.90;;;;;;5056652;28;20438;-49
2020/12/10 05:28:40;;;;;;;38.45;19.58;;;4.50;99.90;;;;;;5057357;28;20388;-49
2020/12/10 05:31:13;;;;;;;43.07;20.17;;;4.50;99.90;;;;;;5057278;28;20378;-48
2020/12/10 05:33:56;;;;;;;42.78;20.35;;;4.50;99.90;;;;;;5066066;28;20413;-48
2020/12/10 05:36:23;;;;;;;42.40;20.42;;;4.50;99.90;;;;;;5062175;28;20386;-50
2020/12/10 05:38:58;;;;;;;42.80;20.58;;;4.50;99.90;;;;;;5059743;28;20430;-49
2020/12/10 05:41:25;;;;;;;44.45;19.63;;;4.50;99.90;;;;;;5059573;28;20433;-49
2020/12/10 05:43:51;;;;;;;37.83;18.90;;;4.50;99.90;;;;;;5061583;28;20383;-48
2020/12/10 05:46:24;;;;;;;41.65;19.55;;;4.50;99.90;;;;;;5065352;28;20381;-49
2020/12/10 05:48:51;;;;;;;37.50;18.88;;;4.50;99.90;;;;;;5057299;28;20415;-48
2020/12/10 05:51:19;;;;;;;42.20;19.70;;;4.50;99.90;;;;;;5058398;28;20386;-48
2020/12/10 05:53:49;;;;;;;38.90;19.47;;;4.50;99.90;;;;;;5066921;28;20413;-48
2020/12/10 05:56:17;;;;;;;39.13;18.52;;;4.50;99.90;;;;;;5054091;28;20725;-49
2020/12/10 05:58:51;;;;;;;38.17;19.00;;;4.50;99.90;;;;;;5055799;28;20396;-50
2020/12/10 06:01:33;;;;;;;41.17;19.80;;;4.50;99.90;;;;;;5049427;28;20399;-49
2020/12/10 06:04:00;;;;;;;39.17;19.52;;;4.50;99.90;;;;;;5064188;28;20880;-49
2020/12/10 06:06:27;;;;;;;38.95;18.85;;;4.50;99.90;;;;;;5066099;28;20763;-49
2020/12/10 06:09:01;;;;;;;41.15;19.95;;;4.50;99.90;;;;;;5061520;28;20383;-48
2020/12/10 06:11:28;;;;;;;42.92;19.73;;;4.50;99.90;;;;;;5069009;28;22192;-49
2020/12/10 06:14:04;;;;;;;41.00;19.65;;;4.50;99.90;;;;;;5050090;28;20407;-48
2020/12/10 06:16:31;;;;;;;41.20;19.30;;;4.50;99.90;;;;;;5065811;28;20733;-49
2020/12/10 06:19:02;;;;;;;41.15;19.40;;;4.60;99.90;;;;;;5064163;28;20395;-52
2020/12/10 06:21:45;;;;;;;39.92;19.33;;;4.50;99.90;;;;;;5070354;28;21140;-49
2020/12/10 06:24:32;;;;;;;37.22;18.73;;;4.50;99.90;;;;;;5067455;28;20378;-49
2020/12/10 06:26:58;;;;;;;37.65;18.33;;;4.50;99.90;;;;;;5068913;28;20387;-49
2020/12/10 06:29:32;;;;;;;43.55;18.75;;;4.50;99.90;;;;;;5070303;28;20393;-48
2020/12/10 06:32:10;;;;;;;35.00;18.02;;;4.50;99.90;;;;;;5064531;28;20852;-49
2020/12/10 06:34:48;;;;;;;35.10;18.48;;;4.60;99.90;;;;;;5071715;28;20394;-49
2020/12/10 06:37:17;;;;;;;36.50;18.25;;;4.50;99.90;;;;;;5072744;28;20735;-48
2020/12/10 06:39:43;;;;;;;38.90;18.83;;;4.60;99.90;;;;;;5070855;28;20374;-48
2020/12/10 06:42:09;;;;;;;38.72;18.33;;;4.60;99.90;;;;;;5071573;28;20397;-49
2020/12/10 06:44:36;;;;;;;35.85;18.13;;;4.60;99.90;;;;;;5058302;28;20397;-49
2020/12/10 06:47:03;;;;;;;39.15;17.90;;;4.50;99.90;;;;;;5057305;28;20389;-48
2020/12/10 06:49:36;;;;;;;36.75;18.02;;;4.60;99.90;;;;;;5060178;28;20398;-48
2020/12/10 06:52:18;;;;;;;38.97;17.95;;;4.60;99.90;;;;;;5072782;28;20449;-49
2020/12/10 06:55:07;;;;;;;38.20;19.25;;;4.60;99.90;;;;;;5067126;28;20398;-49
2020/12/10 06:57:59;;;;;;;40.97;19.10;;;4.60;99.90;;;;;;5062085;28;20735;-50
2020/12/10 07:00:51;;;;;;;36.38;18.30;;;4.60;99.90;;;;;;5064109;28;20405;-49
2020/12/10 07:03:26;;;;;;;37.92;18.58;;;4.60;99.90;;;;;;5064937;28;20755;-49
2020/12/10 07:05:53;;;;;;;34.47;17.00;;;4.60;99.90;;;;;;5068650;28;20374;-48
2020/12/10 07:08:20;;;;;;;33.17;16.90;;;4.50;99.90;;;;;;5065131;28;20383;-49
2020/12/10 07:10:48;;;;;;;33.72;16.38;;;4.60;99.90;;;;;;5056312;28;20718;-49
2020/12/10 07:13:15;;;;;;;34.28;16.33;;;4.60;99.90;;;;;;5062020;28;20407;-49
2020/12/10 07:15:47;;;;;;;35.22;15.93;;;4.50;99.90;;;;;;5063760;28;20727;-49
2020/12/10 07:18:13;;;;;;;34.17;16.50;;;4.60;99.90;;;;;;5064051;28;20397;-48
2020/12/10 07:20:40;;;;;;;33.65;16.52;;;4.60;99.90;;;;;;5060113;28;20904;-49
2020/12/10 07:23:06;;;;;;;33.47;15.93;;;4.60;99.90;;;;;;5065187;28;20390;-48
2020/12/10 07:25:32;;;;;;;28.15;14.02;;;4.60;99.90;;;;;;5064755;28;20390;-49
2020/12/10 07:27:59;;;;;;;29.50;14.85;;;4.60;99.90;;;;;;5071325;28;20374;-49
2020/12/10 07:30:27;;;;;;;28.40;14.27;;;4.60;99.90;;;;;;5064176;28;20390;-48
2020/12/10 07:32:54;;;;;;;31.65;15.18;;;4.60;99.90;;;;;;5065821;28;20423;-49
2020/12/10 07:35:47;;;;;;;30.23;14.77;;;4.60;99.90;;;;;;5068614;28;20378;-49
2020/12/10 07:38:14;;;;;;;35.13;16.90;;;4.60;99.90;;;;;;5065911;28;20380;-48
2020/12/10 07:40:40;;;;;;;34.35;15.80;;;4.60;99.90;;;;;;5054979;28;20890;-48
2020/12/10 07:43:07;;;;;;;34.05;15.82;;;4.60;99.90;;;;;;5062937;28;20392;-49
2020/12/10 07:45:34;;;;;;;33.42;15.45;;;4.60;99.90;;;;;;5057693;28;20399;-49
2020/12/10 07:48:02;;;;;;;33.60;16.00;;;4.50;99.90;;;;;;5064438;28;20742;-49
2020/12/10 07:50:29;;;;;;;32.63;14.95;;;4.50;99.90;;;;;;5067723;28;20403;-48
2020/12/10 07:52:56;;;;;;;29.73;14.20;;;4.50;99.90;;;;;;5064787;28;20404;-49
2020/12/10 07:55:24;;;;;;;30.88;14.60;;;4.50;99.90;;;;;;5056266;28;20397;-48
2020/12/10 07:58:16;;;;;;;28.55;14.38;;;4.50;99.90;;;;;;5058370;28;20384;-48
2020/12/10 08:00:43;;;;;;;30.63;14.38;;;4.50;99.90;;;;;;5058097;28;20744;-49
2020/12/10 08:03:09;;;;;;;26.77;13.63;;;4.40;99.90;;;;;;5063793;28;20402;-48
2020/12/10 08:05:35;;;;;;;31.08;13.90;;;4.40;99.90;;;;;;5071600;28;20862;-48
2020/12/10 08:08:01;;;;;;;28.00;13.38;;;4.40;99.90;;;;;;5058092;28;20397;-49
2020/12/10 08:10:33;;;;;;;28.20;13.57;;;4.40;99.90;;;;;;5049220;28;20385;-48
2020/12/10 08:13:15;;;;;;;23.85;13.02;;;4.40;99.90;;;;;;5069800;28;20418;-49
2020/12/10 08:15:49;;;;;;;26.35;13.20;;;4.40;99.90;;;;;;5059915;28;20395;-48
2020/12/10 08:18:19;;;;;;;30.05;13.70;;;4.40;99.90;;;;;;5057099;28;20406;-48
2020/12/10 08:20:46;;;;;;;26.23;13.45;;;4.40;99.90;;;;;;5064545;28;20382;-48
2020/12/10 08:23:13;;;;;;;26.52;13.57;;;4.40;99.90;;;;;;5070903;28;20719;-52
2020/12/10 08:25:40;;;;;;;28.95;13.32;;;4.40;99.90;;;;;;5052045;28;20383;-48
2020/12/10 08:28:09;;;;;;;31.80;14.27;;;4.30;99.90;;;;;;5054344;28;20380;-48
2020/12/10 08:30:36;;;;;;;55.40;29.98;;;4.30;99.90;;;;;;5064862;28;20882;-48
2020/12/10 08:33:03;;;;;;;27.80;14.23;;;4.30;99.90;;;;;;5068219;28;20882;-49
2020/12/10 08:35:41;;;;;;;28.27;14.43;;;4.30;99.90;;;;;;5065669;28;20485;-50
2020/12/10 08:38:07;;;;;;;30.33;14.45;;;4.30;99.90;;;;;;5059333;28;20391;-49
2020/12/10 08:40:33;;;;;;;36.13;17.30;;;4.30;99.90;;;;;;5064556;28;20374;-49
2020/12/10 08:43:10;;;;;;;32.03;14.13;;;4.30;99.90;;;;;;5066943;28;20379;-49
2020/12/10 08:45:43;;;;;;;32.03;15.03;;;4.30;99.90;;;;;;5054574;28;20382;-49
2020/12/10 08:48:13;;;;;;;44.70;24.88;;;4.30;99.90;;;;;;5053562;28;20395;-49
2020/12/10 08:50:52;;;;;;;32.78;17.80;;;4.30;99.90;;;;;;5054296;28;20396;-50
2020/12/10 08:53:18;;;;;;;27.90;13.88;;;4.30;99.90;;;;;;5051581;28;20423;-49
2020/12/10 08:55:50;;;;;;;30.00;13.93;;;4.30;99.90;;;;;;5066574;28;20378;-49
2020/12/10 08:58:20;;;;;;;25.83;13.17;;;4.30;99.90;;;;;;5063224;28;20387;-48
2020/12/10 09:00:50;;;;;;;29.50;12.75;;;4.30;99.90;;;;;;5059996;28;20390;-48
2020/12/10 09:03:17;;;;;;;28.08;14.48;;;4.30;99.90;;;;;;5067826;28;20406;-49
2020/12/10 09:05:43;;;;;;;26.33;12.70;;;4.30;99.90;;;;;;5066143;28;20386;-49
2020/12/10 09:08:10;;;;;;;28.85;12.77;;;4.30;99.90;;;;;;5059328;28;20372;-48
2020/12/10 09:10:36;;;;;;;24.13;12.02;;;4.30;99.90;;;;;;5064054;28;20851;-49
2020/12/10 09:13:02;;;;;;;26.27;12.57;;;4.20;99.90;;;;;;5066118;28;20414;-48
2020/12/10 09:15:28;;;;;;;25.70;11.80;;;4.20;99.90;;;;;;5061288;28;20382;-49
2020/12/10 09:17:55;;;;;;;24.55;11.90;;;4.30;99.90;;;;;;5061390;28;20901;-48
2020/12/10 09:20:21;;;;;;;23.58;12.23;;;4.20;99.90;;;;;;5064850;28;20404;-49
2020/12/10 09:22:47;;;;;;;23.20;11.90;;;4.20;99.90;;;;;;5057678;28;20410;-49
2020/12/10 09:25:14;;;;;;;24.27;12.32;;;4.20;99.90;;;;;;5058312;28;20388;-48
2020/12/10 09:27:40;;;;;;;24.38;12.00;;;4.20;99.90;;;;;;5061211;28;20867;-49
2020/12/10 09:30:07;;;;;;;28.23;13.25;;;4.20;99.90;;;;;;5068282;28;20397;-49
2020/12/10 09:32:34;;;;;;;26.33;12.82;;;4.20;99.90;;;;;;5064143;28;20390;-49
2020/12/10 09:35:05;;;;;;;25.80;12.30;;;4.20;99.90;;;;;;5070058;28;20398;-50
2020/12/10 09:37:31;;;;;;;24.48;12.77;;;4.20;99.90;;;;;;5062953;28;20743;-49
2020/12/10 09:39:57;;;;;;;26.90;12.98;;;4.10;99.90;;;;;;5065811;28;20408;-49
2020/12/10 09:42:23;;;;;;;28.67;13.73;;;4.10;99.90;;;;;;5066070;28;20512;-57
2020/12/10 09:44:49;;;;;;;25.30;12.48;;;4.20;99.90;;;;;;5057807;28;20401;-51
2020/12/10 09:47:15;;;;;;;38.75;17.77;;;4.10;99.90;;;;;;5064549;28;20403;-48
2020/12/10 09:49:42;;;;;;;23.42;12.30;;;4.10;99.90;;;;;;5064825;28;20392;-48
2020/12/10 09:52:08;;;;;;;129.30;50.10;;;4.10;99.90;;;;;;5067169;28;20406;-48
2020/12/10 09:59:28;;;;;;;23.98;11.45;;;4.10;99.90;;;;;;5059342;28;20400;-56
2020/12/10 10:01:54;;;;;;;103.47;36.70;;;4.10;99.90;;;;;;5065584;28;20839;-56
2020/12/10 10:04:20;;;;;;;28.42;13.55;;;4.10;99.90;;;;;;5058254;28;20404;-53
2020/12/10 10:06:47;;;;;;;26.25;11.43;;;4.10;99.90;;;;;;5063528;28;20378;-56
2020/12/10 10:09:14;;;;;;;27.83;12.77;;;4.10;99.90;;;;;;5056859;28;20844;-54
2020/12/10 10:11:44;;;;;;;22.42;10.80;;;4.10;99.90;;;;;;5063737;28;20389;-52
2020/12/10 10:14:10;;;;;;;61.95;28.63;;;4.10;99.90;;;;;;5058782;28;20414;-55
2020/12/10 10:16:36;;;;;;;23.40;11.40;;;4.10;99.90;;;;;;5062002;28;20396;-56
2020/12/10 10:19:02;;;;;;;24.23;11.15;;;4.10;99.90;;;;;;5061118;28;20406;-56
2020/12/10 10:21:29;;;;;;;21.75;10.25;;;4.10;99.90;;;;;;5057780;28;20415;-56
2020/12/10 10:23:55;;;;;;;23.67;10.70;;;4.10;99.90;;;;;;5052381;28;20428;-56
2020/12/10 10:26:22;;;;;;;19.90;10.10;;;4.20;99.90;;;;;;5058555;28;20377;-56
2020/12/10 10:28:50;;;;;;;22.30;10.48;;;4.20;99.90;;;;;;5064653;28;20382;-56
2020/12/10 10:31:16;;;;;;;39.25;18.85;;;4.20;99.90;;;;;;5063751;28;20398;-56
2020/12/10 10:33:43;;;;;;;23.80;10.77;;;4.10;99.90;;;;;;5063242;28;20410;-54
2020/12/10 10:36:10;;;;;;;68.32;31.30;;;4.10;99.90;;;;;;5059910;28;20855;-55
2020/12/10 10:38:36;;;;;;;25.15;12.50;;;4.20;99.90;;;;;;5066805;28;20405;-55
2020/12/10 10:41:02;;;;;;;28.42;14.57;;;4.20;99.90;;;;;;5066131;28;20389;-54
2020/12/10 10:43:29;;;;;;;23.65;11.25;;;4.10;99.90;;;;;;5060104;28;20392;-56
2020/12/10 10:45:55;;;;;;;32.30;17.88;;;4.10;99.90;;;;;;5065308;28;20898;-55
2020/12/10 10:48:21;;;;;;;24.70;11.60;;;4.20;99.90;;;;;;5065274;28;20867;-56
2020/12/10 10:50:47;;;;;;;30.38;18.90;;;4.10;99.90;;;;;;5063693;28;20856;-54
2020/12/10 10:53:13;;;;;;;165.97;118.90;;;4.20;99.90;;;;;;5064832;28;20402;-56
2020/12/10 10:55:42;;;;;;;22.63;11.63;;;4.20;99.90;;;;;;5062697;28;20374;-55
2020/12/10 10:58:08;;;;;;;19.98;9.57;;;4.20;99.90;;;;;;5062417;28;20371;-57
2020/12/10 11:00:34;;;;;;;22.77;10.43;;;4.20;99.90;;;;;;5066023;28;20384;-56
2020/12/10 11:03:00;;;;;;;20.40;10.00;;;4.20;99.90;;;;;;5070261;28;20390;-56
2020/12/10 11:05:26;;;;;;;70.88;49.58;;;4.20;99.90;;;;;;5065103;28;20393;-54
2020/12/10 11:07:59;;;;;;;22.05;10.10;;;4.20;99.90;;;;;;5062592;28;20382;-54
2020/12/10 11:10:26;;;;;;;43.63;25.50;;;4.20;99.90;;;;;;5068310;28;20774;-53
2020/12/10 11:12:52;;;;;;;18.45;9.23;;;4.20;99.90;;;;;;5066470;28;20421;-56
2020/12/10 11:15:18;;;;;;;25.92;13.60;;;4.20;99.90;;;;;;5062656;28;20404;-54
2020/12/10 11:17:44;;;;;;;21.38;9.82;;;4.20;99.90;;;;;;5066613;28;20386;-55
2020/12/10 11:20:10;;;;;;;19.77;9.70;;;4.20;99.90;;;;;;5065990;28;20392;-55
2020/12/10 11:22:38;;;;;;;21.45;9.80;;;4.20;99.90;;;;;;5062171;28;20402;-55
2020/12/10 11:25:05;;;;;;;23.75;12.75;;;4.20;99.90;;;;;;5069201;28;20889;-54
2020/12/10 11:27:31;;;;;;;19.65;9.10;;;4.20;99.90;;;;;;5065307;28;20390;-50
2020/12/10 11:29:58;;;;;;;22.27;10.02;;;4.20;99.90;;;;;;5061389;28;20744;-50
2020/12/10 11:32:24;;;;;;;20.23;10.02;;;4.20;99.90;;;;;;5061053;28;20723;-50
2020/12/10 11:34:50;;;;;;;19.15;9.77;;;4.20;99.90;;;;;;5071789;28;20409;-50
2020/12/10 11:37:17;;;;;;;17.98;9.23;;;4.20;99.90;;;;;;5068006;28;20696;-52
2020/12/10 11:39:43;;;;;;;16.30;8.18;;;4.20;99.90;;;;;;5065861;28;20380;-51
2020/12/10 11:42:10;;;;;;;23.08;11.73;;;4.20;99.90;;;;;;5065446;28;20382;-50
2020/12/10 11:44:40;;;;;;;16.83;8.35;;;4.20;99.90;;;;;;5068167;28;20657;-54
2020/12/10 11:47:06;;;;;;;17.42;8.80;;;4.20;99.90;;;;;;5064344;28;20386;-51
2020/12/10 11:49:32;;;;;;;18.73;9.23;;;4.20;99.90;;;;;;5062877;28;20402;-49
2020/12/10 11:51:58;;;;;;;895.95;276.73;;;4.20;99.90;;;;;;5059542;28;20387;-49
2020/12/10 11:54:24;;;;;;;26.55;13.15;;;4.20;99.90;;;;;;5062232;28;20888;-50
2020/12/10 11:56:55;;;;;;;27.17;15.38;;;4.20;99.90;;;;;;5062919;28;20374;-49
2020/12/10 11:59:22;;;;;;;18.60;8.60;;;4.20;99.90;;;;;;5060234;28;20387;-51
2020/12/10 12:01:48;;;;;;;19.38;10.45;;;4.10;99.90;;;;;;5057259;28;20717;-49
2020/12/10 12:04:14;;;;;;;20.25;10.45;;;4.10;99.90;;;;;;5067067;28;20383;-49
2020/12/10 12:06:45;;;;;;;17.33;8.82;;;4.10;99.90;;;;;;5071829;28;20378;-50
2020/12/10 12:09:11;;;;;;;16.88;8.60;;;4.10;99.90;;;;;;5063466;28;20612;-50
2020/12/10 12:11:37;;;;;;;18.33;8.50;;;4.10;99.90;;;;;;5059667;28;20383;-50
2020/12/10 12:14:04;;;;;;;16.48;7.57;;;4.10;99.90;;;;;;5061872;28;20415;-49
2020/12/10 12:16:33;;;;;;;18.90;9.52;;;4.00;99.90;;;;;;5059777;28;20391;-50
2020/12/10 12:18:59;;;;;;;14.45;7.78;;;4.10;99.90;;;;;;5065905;28;20752;-50
2020/12/10 12:21:28;;;;;;;37.85;18.08;;;4.00;99.90;;;;;;5057277;28;20415;-50
2020/12/10 12:23:54;;;;;;;17.53;8.30;;;4.10;99.90;;;;;;5061124;28;20405;-51
2020/12/10 12:26:28;;;;;;;14.23;6.80;;;4.10;99.90;;;;;;5059880;28;20376;-50
2020/12/10 12:28:57;;;;;;;17.23;7.20;;;4.10;99.90;;;;;;5053438;28;20384;-49
2020/12/10 12:31:28;;;;;;;21.17;11.90;;;4.10;99.90;;;;;;5056001;28;20388;-50
2020/12/10 12:33:55;;;;;;;17.70;7.57;;;4.10;99.90;;;;;;5069201;28;20432;-49
2020/12/10 12:36:24;;;;;;;16.42;8.23;;;4.10;99.90;;;;;;5061720;28;20396;-50
2020/12/10 12:38:50;;;;;;;15.27;7.45;;;4.10;99.90;;;;;;5054050;28;20380;-49
2020/12/10 12:41:16;;;;;;;37.60;18.45;;;4.10;99.90;;;;;;5061689;28;20708;-50
2020/12/10 12:43:43;;;;;;;19.40;8.98;;;4.10;99.90;;;;;;5071551;28;20382;-50
2020/12/10 12:46:09;;;;;;;15.65;7.40;;;4.10;99.90;;;;;;5071588;28;20378;-52
2020/12/10 12:48:36;;;;;;;15.85;7.18;;;4.10;99.90;;;;;;5069987;28;20378;-50